sensor_id;sensor_type;location;lat;lon;timestamp;P1;durP1;ratioP1;P2;durP2;ratioP2
47365;SDS011;33105;47.964;7.982;2024-01-15T00:01:31;72.07;;;31.67;;
47365;SDS011;33105;47.964;7.982;2024-01-15T00:04:38;80.50;;;35.60;;
47365;SDS011;33105;47.964;7.982;2024-01-15T00:07:40;73.17;;;36.17;;
47365;SDS011;33105;47.964;7.982;2024-01-15T00:10:41;59.30;;;26.57;;
47365;SDS011;33105;47.964;7.982;2024-01-15T00:13:42;64.47;;;25.67;;
47365;SDS011;33105;47.964;7.982;2024-01-15T00:16:44;58.90;;;25.77;;
47365;SDS011;33105;47.964;7.982;2024-01-15T00:19:45;55.07;;;23.70;;
47365;SDS011;33105;47.964;7.982;2024-01-15T00:22:46;57.37;;;23.97;;
47365;SDS011;33105;47.964;7.982;2024-01-15T00:25:47;53.93;;;22.60;;
47365;SDS011;33105;47.964;7.982;2024-01-15T00:28:48;61.97;;;23.87;;
47365;SDS011;33105;47.964;7.982;2024-01-15T00:31:50;57.10;;;23.93;;
47365;SDS011;33105;47.964;7.982;2024-01-15T00:34:51;57.60;;;22.80;;
47365;SDS011;33105;47.964;7.982;2024-01-15T00:37:52;61.87;;;23.13;;
47365;SDS011;33105;47.964;7.982;2024-01-15T00:40:54;53.83;;;22.43;;
47365;SDS011;33105;47.964;7.982;2024-01-15T00:43:55;59.53;;;23.83;;
47365;SDS011;33105;47.964;7.982;2024-01-15T00:46:56;57.03;;;22.23;;
47365;SDS011;33105;47.964;7.982;2024-01-15T00:49:57;51.47;;;21.87;;
47365;SDS011;33105;47.964;7.982;2024-01-15T00:52:59;55.53;;;22.20;;
47365;SDS011;33105;47.964;7.982;2024-01-15T00:56:00;56.47;;;22.50;;
47365;SDS011;33105;47.964;7.982;2024-01-15T00:59:01;58.27;;;22.23;;
47365;SDS011;33105;47.964;7.982;2024-01-15T01:02:02;56.77;;;22.60;;
47365;SDS011;33105;47.964;7.982;2024-01-15T01:05:04;55.90;;;22.03;;
47365;SDS011;33105;47.964;7.982;2024-01-15T01:08:05;56.77;;;22.67;;
47365;SDS011;33105;47.964;7.982;2024-01-15T01:11:06;56.30;;;22.87;;
47365;SDS011;33105;47.964;7.982;2024-01-15T01:14:07;59.30;;;23.53;;
47365;SDS011;33105;47.964;7.982;2024-01-15T01:17:08;57.37;;;22.87;;
47365;SDS011;33105;47.964;7.982;2024-01-15T01:20:10;57.60;;;21.70;;
47365;SDS011;33105;47.964;7.982;2024-01-15T01:23:11;58.30;;;22.57;;
47365;SDS011;33105;47.964;7.982;2024-01-15T01:26:15;58.47;;;22.83;;
47365;SDS011;33105;47.964;7.982;2024-01-15T01:29:17;59.37;;;23.60;;
47365;SDS011;33105;47.964;7.982;2024-01-15T01:32:18;64.47;;;24.90;;
47365;SDS011;33105;47.964;7.982;2024-01-15T01:35:19;51.03;;;22.50;;
47365;SDS011;33105;47.964;7.982;2024-01-15T01:38:20;59.60;;;24.77;;
47365;SDS011;33105;47.964;7.982;2024-01-15T01:41:21;56.57;;;22.63;;
47365;SDS011;33105;47.964;7.982;2024-01-15T01:44:24;54.60;;;22.30;;
47365;SDS011;33105;47.964;7.982;2024-01-15T01:47:26;55.47;;;22.10;;
47365;SDS011;33105;47.964;7.982;2024-01-15T01:50:28;49.70;;;20.80;;
47365;SDS011;33105;47.964;7.982;2024-01-15T01:53:31;51.43;;;21.13;;
47365;SDS011;33105;47.964;7.982;2024-01-15T01:56:34;55.20;;;21.77;;
47365;SDS011;33105;47.964;7.982;2024-01-15T01:59:36;63.07;;;23.10;;
47365;SDS011;33105;47.964;7.982;2024-01-15T02:02:37;56.13;;;21.47;;
47365;SDS011;33105;47.964;7.982;2024-01-15T02:05:39;50.37;;;21.33;;
47365;SDS011;33105;47.964;7.982;2024-01-15T02:08:42;47.63;;;20.47;;
47365;SDS011;33105;47.964;7.982;2024-01-15T02:11:47;47.83;;;19.30;;
47365;SDS011;33105;47.964;7.982;2024-01-15T02:14:48;46.77;;;19.37;;
47365;SDS011;33105;47.964;7.982;2024-01-15T02:18:23;49.43;;;20.90;;
47365;SDS011;33105;47.964;7.982;2024-01-15T02:21:17;50.60;;;20.83;;
47365;SDS011;33105;47.964;7.982;2024-01-15T02:24:18;49.17;;;21.40;;
47365;SDS011;33105;47.964;7.982;2024-01-15T02:27:20;54.40;;;22.27;;
47365;SDS011;33105;47.964;7.982;2024-01-15T02:30:21;56.43;;;22.83;;
47365;SDS011;33105;47.964;7.982;2024-01-15T02:33:23;55.67;;;22.63;;
47365;SDS011;33105;47.964;7.982;2024-01-15T02:36:24;47.53;;;19.63;;
47365;SDS011;33105;47.964;7.982;2024-01-15T02:39:25;51.57;;;21.10;;
47365;SDS011;33105;47.964;7.982;2024-01-15T02:42:27;47.27;;;19.97;;
47365;SDS011;33105;47.964;7.982;2024-01-15T02:45:28;52.50;;;21.03;;
47365;SDS011;33105;47.964;7.982;2024-01-15T02:48:29;48.57;;;19.67;;
47365;SDS011;33105;47.964;7.982;2024-01-15T02:51:30;45.07;;;19.43;;
47365;SDS011;33105;47.964;7.982;2024-01-15T02:54:31;47.37;;;19.23;;
47365;SDS011;33105;47.964;7.982;2024-01-15T02:57:32;51.53;;;19.83;;
47365;SDS011;33105;47.964;7.982;2024-01-15T03:00:34;47.87;;;19.97;;
47365;SDS011;33105;47.964;7.982;2024-01-15T03:03:35;42.20;;;17.87;;
47365;SDS011;33105;47.964;7.982;2024-01-15T03:06:36;44.57;;;18.63;;
47365;SDS011;33105;47.964;7.982;2024-01-15T03:09:37;46.97;;;17.60;;
47365;SDS011;33105;47.964;7.982;2024-01-15T03:12:38;40.97;;;17.97;;
47365;SDS011;33105;47.964;7.982;2024-01-15T03:15:39;43.83;;;17.83;;
47365;SDS011;33105;47.964;7.982;2024-01-15T03:18:41;45.83;;;18.70;;
47365;SDS011;33105;47.964;7.982;2024-01-15T03:21:42;46.80;;;17.93;;
47365;SDS011;33105;47.964;7.982;2024-01-15T03:24:43;46.13;;;19.20;;
47365;SDS011;33105;47.964;7.982;2024-01-15T03:27:45;46.23;;;20.13;;
47365;SDS011;33105;47.964;7.982;2024-01-15T03:30:46;42.50;;;18.50;;
47365;SDS011;33105;47.964;7.982;2024-01-15T03:33:47;46.90;;;19.47;;
47365;SDS011;33105;47.964;7.982;2024-01-15T03:36:48;50.47;;;19.03;;
47365;SDS011;33105;47.964;7.982;2024-01-15T03:39:49;58.00;;;22.57;;
47365;SDS011;33105;47.964;7.982;2024-01-15T03:42:51;49.97;;;21.23;;
47365;SDS011;33105;47.964;7.982;2024-01-15T03:45:52;46.97;;;20.07;;
47365;SDS011;33105;47.964;7.982;2024-01-15T03:48:53;48.67;;;21.20;;
47365;SDS011;33105;47.964;7.982;2024-01-15T03:51:54;52.13;;;20.73;;
47365;SDS011;33105;47.964;7.982;2024-01-15T03:54:55;47.03;;;19.37;;
47365;SDS011;33105;47.964;7.982;2024-01-15T03:57:56;44.87;;;20.57;;
47365;SDS011;33105;47.964;7.982;2024-01-15T04:00:58;47.40;;;19.73;;
47365;SDS011;33105;47.964;7.982;2024-01-15T04:03:59;45.73;;;19.90;;
47365;SDS011;33105;47.964;7.982;2024-01-15T04:07:00;44.10;;;19.00;;
47365;SDS011;33105;47.964;7.982;2024-01-15T04:10:01;49.67;;;19.97;;
47365;SDS011;33105;47.964;7.982;2024-01-15T04:13:02;48.33;;;18.63;;
47365;SDS011;33105;47.964;7.982;2024-01-15T04:16:04;49.23;;;19.77;;
47365;SDS011;33105;47.964;7.982;2024-01-15T04:19:05;46.80;;;18.40;;
47365;SDS011;33105;47.964;7.982;2024-01-15T04:22:06;45.70;;;19.20;;
47365;SDS011;33105;47.964;7.982;2024-01-15T04:25:08;49.50;;;19.73;;
47365;SDS011;33105;47.964;7.982;2024-01-15T04:28:09;50.73;;;20.47;;
47365;SDS011;33105;47.964;7.982;2024-01-15T04:31:20;48.43;;;21.07;;
47365;SDS011;33105;47.964;7.982;2024-01-15T04:34:24;55.40;;;23.70;;
47365;SDS011;33105;47.964;7.982;2024-01-15T04:37:25;50.70;;;22.00;;
47365;SDS011;33105;47.964;7.982;2024-01-15T04:40:27;48.93;;;21.50;;
47365;SDS011;33105;47.964;7.982;2024-01-15T04:43:28;53.77;;;22.17;;
47365;SDS011;33105;47.964;7.982;2024-01-15T04:46:29;58.20;;;22.60;;
47365;SDS011;33105;47.964;7.982;2024-01-15T04:49:30;47.53;;;21.37;;
47365;SDS011;33105;47.964;7.982;2024-01-15T04:52:32;53.80;;;21.67;;
47365;SDS011;33105;47.964;7.982;2024-01-15T04:55:33;50.30;;;21.47;;
47365;SDS011;33105;47.964;7.982;2024-01-15T04:58:34;54.53;;;21.40;;
47365;SDS011;33105;47.964;7.982;2024-01-15T05:01:35;55.23;;;23.13;;
47365;SDS011;33105;47.964;7.982;2024-01-15T05:04:36;58.27;;;23.63;;
47365;SDS011;33105;47.964;7.982;2024-01-15T05:07:38;56.13;;;22.07;;
47365;SDS011;33105;47.964;7.982;2024-01-15T05:10:39;58.00;;;22.33;;
47365;SDS011;33105;47.964;7.982;2024-01-15T05:13:40;55.33;;;21.80;;
47365;SDS011;33105;47.964;7.982;2024-01-15T05:16:48;54.13;;;21.23;;
47365;SDS011;33105;47.964;7.982;2024-01-15T05:19:50;56.17;;;21.67;;
47365;SDS011;33105;47.964;7.982;2024-01-15T05:22:51;58.83;;;22.43;;
47365;SDS011;33105;47.964;7.982;2024-01-15T05:25:52;61.40;;;23.60;;
47365;SDS011;33105;47.964;7.982;2024-01-15T05:28:53;69.83;;;25.10;;
47365;SDS011;33105;47.964;7.982;2024-01-15T05:31:55;64.17;;;26.50;;
47365;SDS011;33105;47.964;7.982;2024-01-15T05:34:56;63.37;;;23.47;;
47365;SDS011;33105;47.964;7.982;2024-01-15T05:37:57;64.10;;;23.50;;
47365;SDS011;33105;47.964;7.982;2024-01-15T05:40:58;66.17;;;24.50;;
47365;SDS011;33105;47.964;7.982;2024-01-15T05:43:59;61.50;;;24.07;;
47365;SDS011;33105;47.964;7.982;2024-01-15T05:47:01;72.30;;;25.53;;
47365;SDS011;33105;47.964;7.982;2024-01-15T05:50:02;66.77;;;25.30;;
47365;SDS011;33105;47.964;7.982;2024-01-15T05:53:03;72.23;;;24.40;;
47365;SDS011;33105;47.964;7.982;2024-01-15T05:56:05;64.70;;;24.47;;
47365;SDS011;33105;47.964;7.982;2024-01-15T05:59:06;64.20;;;24.70;;
47365;SDS011;33105;47.964;7.982;2024-01-15T06:02:07;63.13;;;22.30;;
47365;SDS011;33105;47.964;7.982;2024-01-15T06:05:08;65.77;;;24.93;;
47365;SDS011;33105;47.964;7.982;2024-01-15T06:08:09;62.43;;;23.27;;
47365;SDS011;33105;47.964;7.982;2024-01-15T06:11:11;60.37;;;22.53;;
47365;SDS011;33105;47.964;7.982;2024-01-15T06:14:12;57.03;;;22.80;;
47365;SDS011;33105;47.964;7.982;2024-01-15T06:17:13;63.23;;;23.90;;
47365;SDS011;33105;47.964;7.982;2024-01-15T06:20:15;61.03;;;23.20;;
47365;SDS011;33105;47.964;7.982;2024-01-15T06:23:16;63.97;;;22.73;;
47365;SDS011;33105;47.964;7.982;2024-01-15T06:26:17;60.43;;;23.00;;
47365;SDS011;33105;47.964;7.982;2024-01-15T06:29:18;56.10;;;22.17;;
47365;SDS011;33105;47.964;7.982;2024-01-15T06:32:19;65.30;;;23.47;;
47365;SDS011;33105;47.964;7.982;2024-01-15T06:35:20;54.50;;;21.77;;
47365;SDS011;33105;47.964;7.982;2024-01-15T06:38:23;56.50;;;22.43;;
47365;SDS011;33105;47.964;7.982;2024-01-15T06:41:26;56.90;;;22.67;;
47365;SDS011;33105;47.964;7.982;2024-01-15T06:44:27;62.13;;;21.93;;
47365;SDS011;33105;47.964;7.982;2024-01-15T06:47:28;53.23;;;22.20;;
47365;SDS011;33105;47.964;7.982;2024-01-15T06:50:29;63.80;;;23.20;;
47365;SDS011;33105;47.964;7.982;2024-01-15T06:53:30;59.47;;;21.60;;
47365;SDS011;33105;47.964;7.982;2024-01-15T06:56:32;51.93;;;20.83;;
47365;SDS011;33105;47.964;7.982;2024-01-15T06:59:33;59.33;;;21.97;;
47365;SDS011;33105;47.964;7.982;2024-01-15T07:02:36;63.70;;;22.57;;
47365;SDS011;33105;47.964;7.982;2024-01-15T07:05:37;61.60;;;22.87;;
47365;SDS011;33105;47.964;7.982;2024-01-15T07:08:39;66.20;;;25.10;;
47365;SDS011;33105;47.964;7.982;2024-01-15T07:11:44;68.60;;;25.50;;
47365;SDS011;33105;47.964;7.982;2024-01-15T07:14:46;57.13;;;22.30;;
47365;SDS011;33105;47.964;7.982;2024-01-15T07:17:47;69.53;;;26.27;;
47365;SDS011;33105;47.964;7.982;2024-01-15T07:20:49;63.27;;;24.23;;
47365;SDS011;33105;47.964;7.982;2024-01-15T07:23:50;61.23;;;23.60;;
47365;SDS011;33105;47.964;7.982;2024-01-15T07:26:51;66.67;;;24.23;;
47365;SDS011;33105;47.964;7.982;2024-01-15T07:29:52;63.80;;;23.80;;
47365;SDS011;33105;47.964;7.982;2024-01-15T07:32:53;63.87;;;22.67;;
47365;SDS011;33105;47.964;7.982;2024-01-15T07:35:55;58.67;;;20.53;;
47365;SDS011;33105;47.964;7.982;2024-01-15T07:38:56;58.20;;;21.50;;
47365;SDS011;33105;47.964;7.982;2024-01-15T07:41:57;52.60;;;20.80;;
47365;SDS011;33105;47.964;7.982;2024-01-15T07:44:58;50.43;;;18.63;;
47365;SDS011;33105;47.964;7.982;2024-01-15T07:47:59;53.33;;;23.03;;
47365;SDS011;33105;47.964;7.982;2024-01-15T07:51:00;47.87;;;18.63;;
47365;SDS011;33105;47.964;7.982;2024-01-15T07:54:02;43.47;;;19.57;;
47365;SDS011;33105;47.964;7.982;2024-01-15T07:57:03;47.00;;;18.30;;
47365;SDS011;33105;47.964;7.982;2024-01-15T08:00:04;46.90;;;19.43;;
47365;SDS011;33105;47.964;7.982;2024-01-15T08:03:06;45.13;;;19.17;;
47365;SDS011;33105;47.964;7.982;2024-01-15T08:06:07;48.80;;;18.70;;
47365;SDS011;33105;47.964;7.982;2024-01-15T08:09:10;47.37;;;20.47;;
47365;SDS011;33105;47.964;7.982;2024-01-15T08:12:12;46.20;;;18.70;;
47365;SDS011;33105;47.964;7.982;2024-01-15T08:15:13;47.47;;;18.03;;
47365;SDS011;33105;47.964;7.982;2024-01-15T08:18:15;45.60;;;18.13;;
47365;SDS011;33105;47.964;7.982;2024-01-15T08:21:16;41.60;;;17.73;;
47365;SDS011;33105;47.964;7.982;2024-01-15T08:24:17;41.07;;;16.57;;
47365;SDS011;33105;47.964;7.982;2024-01-15T08:27:18;38.33;;;15.10;;
47365;SDS011;33105;47.964;7.982;2024-01-15T08:30:20;37.77;;;15.60;;
47365;SDS011;33105;47.964;7.982;2024-01-15T08:33:25;33.40;;;14.30;;
47365;SDS011;33105;47.964;7.982;2024-01-15T08:36:27;31.50;;;13.87;;
47365;SDS011;33105;47.964;7.982;2024-01-15T08:39:30;37.13;;;14.60;;
47365;SDS011;33105;47.964;7.982;2024-01-15T08:42:31;41.27;;;17.03;;
47365;SDS011;33105;47.964;7.982;2024-01-15T08:45:32;34.90;;;14.17;;
47365;SDS011;33105;47.964;7.982;2024-01-15T08:48:34;35.53;;;15.30;;
47365;SDS011;33105;47.964;7.982;2024-01-15T08:51:35;28.87;;;12.70;;
47365;SDS011;33105;47.964;7.982;2024-01-15T08:54:36;26.57;;;11.07;;
47365;SDS011;33105;47.964;7.982;2024-01-15T08:57:38;28.47;;;13.33;;
47365;SDS011;33105;47.964;7.982;2024-01-15T09:00:39;31.37;;;13.43;;
47365;SDS011;33105;47.964;7.982;2024-01-15T09:03:40;31.23;;;14.43;;
47365;SDS011;33105;47.964;7.982;2024-01-15T09:06:46;29.90;;;13.47;;
47365;SDS011;33105;47.964;7.982;2024-01-15T09:09:48;28.77;;;12.07;;
47365;SDS011;33105;47.964;7.982;2024-01-15T09:12:49;22.60;;;10.83;;
47365;SDS011;33105;47.964;7.982;2024-01-15T09:15:50;21.37;;;9.00;;
47365;SDS011;33105;47.964;7.982;2024-01-15T09:18:51;24.52;;;10.05;;
47365;SDS011;33105;47.964;7.982;2024-01-15T09:21:52;28.27;;;11.43;;
47365;SDS011;33105;47.964;7.982;2024-01-15T09:24:54;21.63;;;10.00;;
47365;SDS011;33105;47.964;7.982;2024-01-15T09:27:55;20.42;;;9.18;;
47365;SDS011;33105;47.964;7.982;2024-01-15T09:30:56;14.48;;;7.60;;
47365;SDS011;33105;47.964;7.982;2024-01-15T09:33:57;16.88;;;8.45;;
47365;SDS011;33105;47.964;7.982;2024-01-15T09:37:00;26.03;;;10.87;;
47365;SDS011;33105;47.964;7.982;2024-01-15T09:40:02;7.13;;;3.40;;
47365;SDS011;33105;47.964;7.982;2024-01-15T09:43:04;6.32;;;2.67;;
47365;SDS011;33105;47.964;7.982;2024-01-15T09:46:05;5.93;;;2.50;;
47365;SDS011;33105;47.964;7.982;2024-01-15T09:49:07;6.47;;;2.40;;
47365;SDS011;33105;47.964;7.982;2024-01-15T09:52:09;9.35;;;4.32;;
47365;SDS011;33105;47.964;7.982;2024-01-15T09:55:13;4.25;;;2.50;;
47365;SDS011;33105;47.964;7.982;2024-01-15T09:58:16;6.45;;;3.33;;
47365;SDS011;33105;47.964;7.982;2024-01-15T10:01:18;6.40;;;2.97;;
47365;SDS011;33105;47.964;7.982;2024-01-15T10:04:21;7.55;;;3.90;;
47365;SDS011;33105;47.964;7.982;2024-01-15T10:07:22;6.13;;;3.58;;
47365;SDS011;33105;47.964;7.982;2024-01-15T10:10:26;3.83;;;2.67;;
47365;SDS011;33105;47.964;7.982;2024-01-15T10:13:27;5.45;;;2.33;;
47365;SDS011;33105;47.964;7.982;2024-01-15T10:16:31;5.53;;;2.80;;
47365;SDS011;33105;47.964;7.982;2024-01-15T10:19:32;4.57;;;2.40;;
47365;SDS011;33105;47.964;7.982;2024-01-15T10:22:33;7.25;;;2.75;;
47365;SDS011;33105;47.964;7.982;2024-01-15T10:25:35;4.38;;;2.42;;
47365;SDS011;33105;47.964;7.982;2024-01-15T10:28:36;6.63;;;3.35;;
47365;SDS011;33105;47.964;7.982;2024-01-15T10:31:37;3.92;;;1.85;;
47365;SDS011;33105;47.964;7.982;2024-01-15T10:34:39;3.30;;;1.73;;
47365;SDS011;33105;47.964;7.982;2024-01-15T10:37:41;5.28;;;2.05;;
47365;SDS011;33105;47.964;7.982;2024-01-15T10:40:42;4.00;;;1.80;;
47365;SDS011;33105;47.964;7.982;2024-01-15T10:43:44;3.97;;;1.85;;
47365;SDS011;33105;47.964;7.982;2024-01-15T10:46:45;7.88;;;1.80;;
47365;SDS011;33105;47.964;7.982;2024-01-15T10:49:47;4.00;;;2.20;;
47365;SDS011;33105;47.964;7.982;2024-01-15T10:52:49;4.82;;;2.47;;
47365;SDS011;33105;47.964;7.982;2024-01-15T10:55:52;4.97;;;2.50;;
47365;SDS011;33105;47.964;7.982;2024-01-15T10:58:54;4.80;;;2.72;;
47365;SDS011;33105;47.964;7.982;2024-01-15T11:01:56;6.15;;;3.13;;
47365;SDS011;33105;47.964;7.982;2024-01-15T11:04:58;6.78;;;3.20;;
47365;SDS011;33105;47.964;7.982;2024-01-15T11:08:00;9.73;;;4.32;;
47365;SDS011;33105;47.964;7.982;2024-01-15T11:11:02;9.23;;;4.65;;
47365;SDS011;33105;47.964;7.982;2024-01-15T11:14:03;9.52;;;4.30;;
47365;SDS011;33105;47.964;7.982;2024-01-15T11:17:05;11.18;;;5.22;;
47365;SDS011;33105;47.964;7.982;2024-01-15T11:20:06;11.63;;;5.10;;
47365;SDS011;33105;47.964;7.982;2024-01-15T11:23:08;13.73;;;6.28;;
47365;SDS011;33105;47.964;7.982;2024-01-15T11:26:44;11.98;;;5.47;;
47365;SDS011;33105;47.964;7.982;2024-01-15T11:29:39;11.03;;;4.93;;
47365;SDS011;33105;47.964;7.982;2024-01-15T11:32:40;12.10;;;6.03;;
47365;SDS011;33105;47.964;7.982;2024-01-15T11:35:47;12.93;;;5.70;;
47365;SDS011;33105;47.964;7.982;2024-01-15T11:38:50;13.73;;;5.75;;
47365;SDS011;33105;47.964;7.982;2024-01-15T11:41:51;13.65;;;6.10;;
47365;SDS011;33105;47.964;7.982;2024-01-15T11:44:53;11.93;;;5.32;;
47365;SDS011;33105;47.964;7.982;2024-01-15T11:51:16;14.05;;;5.07;;
47365;SDS011;33105;47.964;7.982;2024-01-15T11:54:19;14.25;;;5.35;;
47365;SDS011;33105;47.964;7.982;2024-01-15T11:57:29;11.90;;;5.93;;
47365;SDS011;33105;47.964;7.982;2024-01-15T12:00:49;13.50;;;5.60;;
47365;SDS011;33105;47.964;7.982;2024-01-15T12:03:53;20.10;;;6.65;;
47365;SDS011;33105;47.964;7.982;2024-01-15T12:06:55;13.00;;;6.13;;
47365;SDS011;33105;47.964;7.982;2024-01-15T12:09:57;17.13;;;7.38;;
47365;SDS011;33105;47.964;7.982;2024-01-15T12:16:06;20.77;;;7.60;;
47365;SDS011;33105;47.964;7.982;2024-01-15T12:19:08;13.82;;;6.15;;
47365;SDS011;33105;47.964;7.982;2024-01-15T12:22:09;14.90;;;6.50;;
47365;SDS011;33105;47.964;7.982;2024-01-15T12:25:10;14.40;;;6.55;;
47365;SDS011;33105;47.964;7.982;2024-01-15T12:28:12;11.63;;;6.15;;
47365;SDS011;33105;47.964;7.982;2024-01-15T12:31:13;10.75;;;5.22;;
47365;SDS011;33105;47.964;7.982;2024-01-15T12:34:14;10.90;;;5.43;;
47365;SDS011;33105;47.964;7.982;2024-01-15T12:37:19;11.68;;;4.40;;
47365;SDS011;33105;47.964;7.982;2024-01-15T12:40:21;9.07;;;4.63;;
47365;SDS011;33105;47.964;7.982;2024-01-15T12:43:26;11.57;;;5.85;;
47365;SDS011;33105;47.964;7.982;2024-01-15T12:46:27;13.20;;;5.30;;
47365;SDS011;33105;47.964;7.982;2024-01-15T12:49:28;10.48;;;5.28;;
47365;SDS011;33105;47.964;7.982;2024-01-15T12:52:30;14.38;;;6.55;;
47365;SDS011;33105;47.964;7.982;2024-01-15T12:55:31;10.02;;;5.03;;
47365;SDS011;33105;47.964;7.982;2024-01-15T12:58:32;11.85;;;4.80;;
47365;SDS011;33105;47.964;7.982;2024-01-15T13:01:34;8.88;;;4.40;;
47365;SDS011;33105;47.964;7.982;2024-01-15T13:04:36;8.15;;;4.00;;
47365;SDS011;33105;47.964;7.982;2024-01-15T13:07:38;8.60;;;4.57;;
47365;SDS011;33105;47.964;7.982;2024-01-15T13:10:39;7.95;;;4.28;;
47365;SDS011;33105;47.964;7.982;2024-01-15T13:13:43;7.28;;;4.13;;
47365;SDS011;33105;47.964;7.982;2024-01-15T13:16:44;9.75;;;4.68;;
47365;SDS011;33105;47.964;7.982;2024-01-15T13:19:46;8.60;;;4.72;;
47365;SDS011;33105;47.964;7.982;2024-01-15T13:22:47;8.88;;;4.88;;
47365;SDS011;33105;47.964;7.982;2024-01-15T13:25:48;8.10;;;4.07;;
47365;SDS011;33105;47.964;7.982;2024-01-15T13:28:54;10.38;;;4.50;;
47365;SDS011;33105;47.964;7.982;2024-01-15T13:31:56;10.70;;;4.18;;
47365;SDS011;33105;47.964;7.982;2024-01-15T13:34:59;10.20;;;5.03;;
47365;SDS011;33105;47.964;7.982;2024-01-15T13:38:03;12.18;;;4.63;;
47365;SDS011;33105;47.964;7.982;2024-01-15T13:41:04;16.45;;;8.77;;
47365;SDS011;33105;47.964;7.982;2024-01-15T13:44:06;10.38;;;4.68;;
47365;SDS011;33105;47.964;7.982;2024-01-15T13:47:07;9.65;;;5.03;;
47365;SDS011;33105;47.964;7.982;2024-01-15T13:50:09;12.75;;;5.13;;
47365;SDS011;33105;47.964;7.982;2024-01-15T13:53:10;13.75;;;5.80;;
47365;SDS011;33105;47.964;7.982;2024-01-15T13:56:12;11.10;;;5.83;;
47365;SDS011;33105;47.964;7.982;2024-01-15T13:59:13;11.68;;;6.47;;
47365;SDS011;33105;47.964;7.982;2024-01-15T14:02:14;14.48;;;6.75;;
47365;SDS011;33105;47.964;7.982;2024-01-15T14:05:16;15.10;;;6.83;;
47365;SDS011;33105;47.964;7.982;2024-01-15T14:08:17;14.13;;;6.55;;
47365;SDS011;33105;47.964;7.982;2024-01-15T14:11:19;14.18;;;6.60;;
47365;SDS011;33105;47.964;7.982;2024-01-15T14:14:23;15.27;;;8.10;;
47365;SDS011;33105;47.964;7.982;2024-01-15T14:17:25;14.38;;;6.05;;
47365;SDS011;33105;47.964;7.982;2024-01-15T14:20:26;14.40;;;6.30;;
47365;SDS011;33105;47.964;7.982;2024-01-15T14:23:28;11.07;;;5.37;;
47365;SDS011;33105;47.964;7.982;2024-01-15T14:26:29;14.45;;;6.40;;
47365;SDS011;33105;47.964;7.982;2024-01-15T14:29:32;11.27;;;5.68;;
47365;SDS011;33105;47.964;7.982;2024-01-15T14:32:35;12.97;;;5.80;;
47365;SDS011;33105;47.964;7.982;2024-01-15T14:35:36;14.10;;;6.10;;
47365;SDS011;33105;47.964;7.982;2024-01-15T14:38:38;11.57;;;4.90;;
47365;SDS011;33105;47.964;7.982;2024-01-15T14:41:39;12.52;;;5.93;;
47365;SDS011;33105;47.964;7.982;2024-01-15T14:44:40;11.13;;;5.03;;
47365;SDS011;33105;47.964;7.982;2024-01-15T14:47:41;15.75;;;6.35;;
47365;SDS011;33105;47.964;7.982;2024-01-15T14:50:43;13.02;;;6.47;;
47365;SDS011;33105;47.964;7.982;2024-01-15T14:53:44;12.53;;;4.60;;
47365;SDS011;33105;47.964;7.982;2024-01-15T14:56:46;9.67;;;5.17;;
47365;SDS011;33105;47.964;7.982;2024-01-15T14:59:47;8.90;;;4.40;;
47365;SDS011;33105;47.964;7.982;2024-01-15T15:02:48;9.63;;;5.10;;
47365;SDS011;33105;47.964;7.982;2024-01-15T15:05:50;9.80;;;4.50;;
47365;SDS011;33105;47.964;7.982;2024-01-15T15:08:51;9.40;;;4.83;;
47365;SDS011;33105;47.964;7.982;2024-01-15T15:11:52;11.13;;;4.97;;
47365;SDS011;33105;47.964;7.982;2024-01-15T15:14:53;12.10;;;5.67;;
47365;SDS011;33105;47.964;7.982;2024-01-15T15:17:54;10.77;;;5.33;;
47365;SDS011;33105;47.964;7.982;2024-01-15T15:20:56;13.27;;;7.07;;
47365;SDS011;33105;47.964;7.982;2024-01-15T15:24:00;9.07;;;4.88;;
47365;SDS011;33105;47.964;7.982;2024-01-15T15:27:05;12.00;;;5.30;;
47365;SDS011;33105;47.964;7.982;2024-01-15T15:30:09;8.10;;;4.72;;
47365;SDS011;33105;47.964;7.982;2024-01-15T15:33:16;14.90;;;5.80;;
47365;SDS011;33105;47.964;7.982;2024-01-15T15:36:20;12.25;;;5.45;;
47365;SDS011;33105;47.964;7.982;2024-01-15T15:39:21;12.90;;;5.93;;
47365;SDS011;33105;47.964;7.982;2024-01-15T15:42:25;12.20;;;5.95;;
47365;SDS011;33105;47.964;7.982;2024-01-15T15:45:26;12.15;;;5.68;;
47365;SDS011;33105;47.964;7.982;2024-01-15T15:48:42;12.15;;;6.15;;
47365;SDS011;33105;47.964;7.982;2024-01-15T15:51:43;13.30;;;5.63;;
47365;SDS011;33105;47.964;7.982;2024-01-15T15:54:44;11.30;;;5.85;;
47365;SDS011;33105;47.964;7.982;2024-01-15T15:57:45;11.88;;;5.57;;
47365;SDS011;33105;47.964;7.982;2024-01-15T16:00:47;12.38;;;5.70;;
47365;SDS011;33105;47.964;7.982;2024-01-15T16:03:48;10.40;;;5.22;;
47365;SDS011;33105;47.964;7.982;2024-01-15T16:06:49;9.50;;;5.53;;
47365;SDS011;33105;47.964;7.982;2024-01-15T16:09:51;8.20;;;4.30;;
47365;SDS011;33105;47.964;7.982;2024-01-15T16:12:52;9.57;;;5.60;;
47365;SDS011;33105;47.964;7.982;2024-01-15T16:15:53;10.30;;;5.07;;
47365;SDS011;33105;47.964;7.982;2024-01-15T16:18:54;9.20;;;5.10;;
47365;SDS011;33105;47.964;7.982;2024-01-15T16:21:55;9.13;;;5.07;;
47365;SDS011;33105;47.964;7.982;2024-01-15T16:24:57;10.80;;;4.70;;
47365;SDS011;33105;47.964;7.982;2024-01-15T16:27:58;12.70;;;5.47;;
47365;SDS011;33105;47.964;7.982;2024-01-15T16:30:59;13.47;;;5.83;;
47365;SDS011;33105;47.964;7.982;2024-01-15T16:34:00;14.65;;;6.93;;
47365;SDS011;33105;47.964;7.982;2024-01-15T16:37:02;16.15;;;7.50;;
47365;SDS011;33105;47.964;7.982;2024-01-15T16:40:03;15.10;;;7.57;;
47365;SDS011;33105;47.964;7.982;2024-01-15T16:43:16;19.03;;;7.70;;
47365;SDS011;33105;47.964;7.982;2024-01-15T16:46:28;17.50;;;9.15;;
47365;SDS011;33105;47.964;7.982;2024-01-15T16:49:46;16.73;;;8.60;;
47365;SDS011;33105;47.964;7.982;2024-01-15T16:52:48;44.25;;;17.88;;
47365;SDS011;33105;47.964;7.982;2024-01-15T16:55:54;23.07;;;10.33;;
47365;SDS011;33105;47.964;7.982;2024-01-15T16:58:57;23.50;;;10.53;;
47365;SDS011;33105;47.964;7.982;2024-01-15T17:01:58;26.00;;;12.77;;
47365;SDS011;33105;47.964;7.982;2024-01-15T17:04:59;25.13;;;12.70;;
47365;SDS011;33105;47.964;7.982;2024-01-15T17:08:01;24.37;;;10.97;;
47365;SDS011;33105;47.964;7.982;2024-01-15T17:11:02;24.45;;;11.25;;
47365;SDS011;33105;47.964;7.982;2024-01-15T17:14:03;25.13;;;11.43;;
47365;SDS011;33105;47.964;7.982;2024-01-15T17:17:04;25.35;;;11.82;;
47365;SDS011;33105;47.964;7.982;2024-01-15T17:20:06;24.07;;;11.30;;
47365;SDS011;33105;47.964;7.982;2024-01-15T17:23:09;26.00;;;12.57;;
47365;SDS011;33105;47.964;7.982;2024-01-15T17:26:10;28.13;;;13.15;;
47365;SDS011;33105;47.964;7.982;2024-01-15T17:29:12;32.00;;;15.10;;
47365;SDS011;33105;47.964;7.982;2024-01-15T17:32:13;27.03;;;12.77;;
47365;SDS011;33105;47.964;7.982;2024-01-15T17:35:14;33.97;;;14.48;;
47365;SDS011;33105;47.964;7.982;2024-01-15T17:38:16;32.40;;;13.93;;
47365;SDS011;33105;47.964;7.982;2024-01-15T17:41:17;30.00;;;14.77;;
47365;SDS011;33105;47.964;7.982;2024-01-15T17:44:33;33.70;;;14.30;;
47365;SDS011;33105;47.964;7.982;2024-01-15T17:47:34;26.33;;;13.27;;
47365;SDS011;33105;47.964;7.982;2024-01-15T17:50:51;26.53;;;13.00;;
47365;SDS011;33105;47.964;7.982;2024-01-15T17:53:53;29.05;;;13.38;;
47365;SDS011;33105;47.964;7.982;2024-01-15T17:57:08;25.50;;;11.83;;
47365;SDS011;33105;47.964;7.982;2024-01-15T18:00:11;28.43;;;12.37;;